sensor_id;sensor_type;location;lat;lon;timestamp;P1;durP1;ratioP1;P2;durP2;ratioP2
7045;SDS011;3564;53.326;10.356;2023-12-20T00:00:57;7.63;;;2.10;;
7045;SDS011;3564;53.326;10.356;2023-12-20T00:03:23;7.20;;;2.17;;
7045;SDS011;3564;53.326;10.356;2023-12-20T00:05:52;7.50;;;2.73;;
7045;SDS011;3564;53.326;10.356;2023-12-20T00:08:17;8.33;;;3.00;;
7045;SDS011;3564;53.326;10.356;2023-12-20T00:10:43;7.87;;;2.77;;
7045;SDS011;3564;53.326;10.356;2023-12-20T00:13:12;6.93;;;2.00;;
7045;SDS011;3564;53.326;10.356;2023-12-20T00:15:40;8.90;;;2.20;;
7045;SDS011;3564;53.326;10.356;2023-12-20T00:18:09;5.93;;;2.00;;
7045;SDS011;3564;53.326;10.356;2023-12-20T00:20:34;6.17;;;2.37;;
7045;SDS011;3564;53.326;10.356;2023-12-20T00:23:00;4.63;;;2.40;;
7045;SDS011;3564;53.326;10.356;2023-12-20T00:25:27;6.83;;;1.93;;
7045;SDS011;3564;53.326;10.356;2023-12-20T00:27:53;5.23;;;2.13;;
7045;SDS011;3564;53.326;10.356;2023-12-20T00:30:18;6.17;;;2.10;;
7045;SDS011;3564;53.326;10.356;2023-12-20T00:32:47;10.73;;;2.37;;
7045;SDS011;3564;53.326;10.356;2023-12-20T00:35:15;7.63;;;2.07;;
7045;SDS011;3564;53.326;10.356;2023-12-20T00:37:42;7.23;;;2.03;;
7045;SDS011;3564;53.326;10.356;2023-12-20T00:40:11;6.00;;;2.23;;
7045;SDS011;3564;53.326;10.356;2023-12-20T00:42:36;5.97;;;1.90;;
7045;SDS011;3564;53.326;10.356;2023-12-20T00:45:02;6.80;;;1.90;;
7045;SDS011;3564;53.326;10.356;2023-12-20T00:47:29;7.87;;;2.00;;
7045;SDS011;3564;53.326;10.356;2023-12-20T00:49:58;5.87;;;1.73;;
7045;SDS011;3564;53.326;10.356;2023-12-20T00:52:24;11.57;;;1.90;;
7045;SDS011;3564;53.326;10.356;2023-12-20T00:54:50;12.70;;;2.10;;
7045;SDS011;3564;53.326;10.356;2023-12-20T00:57:17;8.10;;;2.30;;
7045;SDS011;3564;53.326;10.356;2023-12-20T00:59:42;8.40;;;2.10;;
7045;SDS011;3564;53.326;10.356;2023-12-20T01:02:08;8.77;;;2.30;;
7045;SDS011;3564;53.326;10.356;2023-12-20T01:04:37;7.00;;;2.17;;
7045;SDS011;3564;53.326;10.356;2023-12-20T01:07:03;5.13;;;1.80;;
7045;SDS011;3564;53.326;10.356;2023-12-20T01:09:38;7.93;;;1.83;;
7045;SDS011;3564;53.326;10.356;2023-12-20T01:12:03;7.83;;;2.53;;
7045;SDS011;3564;53.326;10.356;2023-12-20T01:14:29;8.60;;;2.17;;
7045;SDS011;3564;53.326;10.356;2023-12-20T01:16:55;10.40;;;2.40;;
7045;SDS011;3564;53.326;10.356;2023-12-20T01:19:20;11.47;;;2.57;;
7045;SDS011;3564;53.326;10.356;2023-12-20T01:21:46;12.87;;;2.27;;
7045;SDS011;3564;53.326;10.356;2023-12-20T01:24:12;7.37;;;1.93;;
7045;SDS011;3564;53.326;10.356;2023-12-20T01:26:37;6.53;;;2.20;;
7045;SDS011;3564;53.326;10.356;2023-12-20T01:29:03;6.27;;;2.23;;
7045;SDS011;3564;53.326;10.356;2023-12-20T01:31:31;8.23;;;1.90;;
7045;SDS011;3564;53.326;10.356;2023-12-20T01:33:57;7.03;;;2.07;;
7045;SDS011;3564;53.326;10.356;2023-12-20T01:36:22;10.53;;;2.23;;
7045;SDS011;3564;53.326;10.356;2023-12-20T01:38:48;9.27;;;2.03;;
7045;SDS011;3564;53.326;10.356;2023-12-20T01:41:14;8.37;;;2.50;;
7045;SDS011;3564;53.326;10.356;2023-12-20T01:43:40;11.03;;;1.93;;
7045;SDS011;3564;53.326;10.356;2023-12-20T01:46:05;8.57;;;2.27;;
7045;SDS011;3564;53.326;10.356;2023-12-20T01:48:31;9.20;;;2.43;;
7045;SDS011;3564;53.326;10.356;2023-12-20T01:51:00;10.33;;;2.67;;
7045;SDS011;3564;53.326;10.356;2023-12-20T01:53:27;9.17;;;2.20;;
7045;SDS011;3564;53.326;10.356;2023-12-20T01:55:54;7.20;;;2.10;;
7045;SDS011;3564;53.326;10.356;2023-12-20T01:58:21;6.40;;;2.10;;
7045;SDS011;3564;53.326;10.356;2023-12-20T02:00:47;9.70;;;2.23;;
7045;SDS011;3564;53.326;10.356;2023-12-20T02:03:13;10.90;;;2.27;;
7045;SDS011;3564;53.326;10.356;2023-12-20T02:05:39;8.50;;;2.43;;
7045;SDS011;3564;53.326;10.356;2023-12-20T02:08:08;6.93;;;2.00;;
7045;SDS011;3564;53.326;10.356;2023-12-20T02:10:34;10.97;;;3.20;;
7045;SDS011;3564;53.326;10.356;2023-12-20T02:13:00;8.80;;;2.70;;
7045;SDS011;3564;53.326;10.356;2023-12-20T02:15:25;7.70;;;2.27;;
7045;SDS011;3564;53.326;10.356;2023-12-20T02:17:54;5.97;;;2.17;;
7045;SDS011;3564;53.326;10.356;2023-12-20T02:20:20;8.27;;;2.77;;
7045;SDS011;3564;53.326;10.356;2023-12-20T02:22:46;7.60;;;2.20;;
7045;SDS011;3564;53.326;10.356;2023-12-20T02:25:12;8.87;;;2.33;;
7045;SDS011;3564;53.326;10.356;2023-12-20T02:27:37;7.70;;;2.50;;
7045;SDS011;3564;53.326;10.356;2023-12-20T02:30:04;6.97;;;2.23;;
7045;SDS011;3564;53.326;10.356;2023-12-20T02:32:30;9.57;;;2.37;;
7045;SDS011;3564;53.326;10.356;2023-12-20T02:34:57;8.73;;;2.77;;
7045;SDS011;3564;53.326;10.356;2023-12-20T02:37:23;7.93;;;2.67;;
7045;SDS011;3564;53.326;10.356;2023-12-20T02:39:49;8.13;;;2.90;;
7045;SDS011;3564;53.326;10.356;2023-12-20T02:42:15;8.40;;;2.50;;
7045;SDS011;3564;53.326;10.356;2023-12-20T02:44:43;7.93;;;3.00;;
7045;SDS011;3564;53.326;10.356;2023-12-20T02:47:14;9.80;;;3.17;;
7045;SDS011;3564;53.326;10.356;2023-12-20T02:49:43;12.17;;;3.10;;
7045;SDS011;3564;53.326;10.356;2023-12-20T02:52:08;11.47;;;2.87;;
7045;SDS011;3564;53.326;10.356;2023-12-20T02:54:37;8.03;;;3.47;;
7045;SDS011;3564;53.326;10.356;2023-12-20T02:57:03;8.53;;;3.80;;
7045;SDS011;3564;53.326;10.356;2023-12-20T02:59:29;6.43;;;3.37;;
7045;SDS011;3564;53.326;10.356;2023-12-20T03:01:54;9.40;;;3.53;;
7045;SDS011;3564;53.326;10.356;2023-12-20T03:04:20;11.97;;;3.53;;
7045;SDS011;3564;53.326;10.356;2023-12-20T03:06:45;9.20;;;3.60;;
7045;SDS011;3564;53.326;10.356;2023-12-20T03:09:11;8.47;;;3.67;;
7045;SDS011;3564;53.326;10.356;2023-12-20T03:11:37;10.63;;;3.47;;
7045;SDS011;3564;53.326;10.356;2023-12-20T03:14:02;10.60;;;3.37;;
7045;SDS011;3564;53.326;10.356;2023-12-20T03:16:28;9.97;;;3.70;;
7045;SDS011;3564;53.326;10.356;2023-12-20T03:18:54;9.60;;;3.83;;
7045;SDS011;3564;53.326;10.356;2023-12-20T03:21:25;11.20;;;4.23;;
7045;SDS011;3564;53.326;10.356;2023-12-20T03:23:51;7.90;;;3.70;;
7045;SDS011;3564;53.326;10.356;2023-12-20T03:26:16;12.20;;;3.93;;
7045;SDS011;3564;53.326;10.356;2023-12-20T03:28:42;13.80;;;3.43;;
7045;SDS011;3564;53.326;10.356;2023-12-20T03:31:09;9.60;;;3.23;;
7045;SDS011;3564;53.326;10.356;2023-12-20T03:33:38;12.53;;;3.97;;
7045;SDS011;3564;53.326;10.356;2023-12-20T03:36:06;7.47;;;3.57;;
7045;SDS011;3564;53.326;10.356;2023-12-20T03:38:35;13.10;;;3.40;;
7045;SDS011;3564;53.326;10.356;2023-12-20T03:41:00;11.43;;;3.13;;
7045;SDS011;3564;53.326;10.356;2023-12-20T03:43:26;7.97;;;3.30;;
7045;SDS011;3564;53.326;10.356;2023-12-20T03:45:55;5.90;;;2.70;;
7045;SDS011;3564;53.326;10.356;2023-12-20T03:48:20;5.00;;;2.70;;
7045;SDS011;3564;53.326;10.356;2023-12-20T03:50:46;8.73;;;3.07;;
7045;SDS011;3564;53.326;10.356;2023-12-20T03:53:12;9.50;;;3.43;;
7045;SDS011;3564;53.326;10.356;2023-12-20T03:55:37;8.97;;;2.87;;
7045;SDS011;3564;53.326;10.356;2023-12-20T03:58:03;6.03;;;2.43;;
7045;SDS011;3564;53.326;10.356;2023-12-20T04:00:32;10.47;;;2.90;;
7045;SDS011;3564;53.326;10.356;2023-12-20T04:02:57;8.33;;;2.87;;
7045;SDS011;3564;53.326;10.356;2023-12-20T04:05:23;5.80;;;2.97;;
7045;SDS011;3564;53.326;10.356;2023-12-20T04:07:51;9.07;;;2.70;;
7045;SDS011;3564;53.326;10.356;2023-12-20T04:10:17;5.57;;;2.13;;
7045;SDS011;3564;53.326;10.356;2023-12-20T04:12:43;8.23;;;2.30;;
7045;SDS011;3564;53.326;10.356;2023-12-20T04:15:08;5.63;;;2.40;;
7045;SDS011;3564;53.326;10.356;2023-12-20T04:17:35;6.30;;;2.30;;
7045;SDS011;3564;53.326;10.356;2023-12-20T04:20:01;5.73;;;2.63;;
7045;SDS011;3564;53.326;10.356;2023-12-20T04:22:33;8.93;;;2.37;;
7045;SDS011;3564;53.326;10.356;2023-12-20T04:25:02;7.90;;;2.73;;
7045;SDS011;3564;53.326;10.356;2023-12-20T04:27:28;12.23;;;2.90;;
7045;SDS011;3564;53.326;10.356;2023-12-20T04:29:54;9.47;;;2.60;;
7045;SDS011;3564;53.326;10.356;2023-12-20T04:32:19;8.90;;;2.23;;
7045;SDS011;3564;53.326;10.356;2023-12-20T04:34:45;10.50;;;3.13;;
7045;SDS011;3564;53.326;10.356;2023-12-20T04:37:10;7.17;;;3.13;;
7045;SDS011;3564;53.326;10.356;2023-12-20T04:39:40;9.77;;;2.77;;
7045;SDS011;3564;53.326;10.356;2023-12-20T04:42:06;8.00;;;2.57;;
7045;SDS011;3564;53.326;10.356;2023-12-20T04:44:32;8.47;;;2.70;;
7045;SDS011;3564;53.326;10.356;2023-12-20T04:46:57;7.70;;;2.80;;
7045;SDS011;3564;53.326;10.356;2023-12-20T04:49:23;7.90;;;3.20;;
7045;SDS011;3564;53.326;10.356;2023-12-20T04:51:49;9.00;;;2.70;;
7045;SDS011;3564;53.326;10.356;2023-12-20T04:54:14;10.87;;;2.93;;
7045;SDS011;3564;53.326;10.356;2023-12-20T04:56:43;6.97;;;2.50;;
7045;SDS011;3564;53.326;10.356;2023-12-20T04:59:08;9.17;;;3.10;;
7045;SDS011;3564;53.326;10.356;2023-12-20T05:01:34;8.97;;;3.30;;
7045;SDS011;3564;53.326;10.356;2023-12-20T05:03:59;7.87;;;3.83;;
7045;SDS011;3564;53.326;10.356;2023-12-20T05:06:25;15.17;;;3.73;;
7045;SDS011;3564;53.326;10.356;2023-12-20T05:08:51;11.97;;;3.40;;
7045;SDS011;3564;53.326;10.356;2023-12-20T05:11:16;13.27;;;3.43;;
7045;SDS011;3564;53.326;10.356;2023-12-20T05:13:42;8.03;;;3.10;;
7045;SDS011;3564;53.326;10.356;2023-12-20T05:16:10;8.63;;;3.20;;
7045;SDS011;3564;53.326;10.356;2023-12-20T05:18:36;10.07;;;3.27;;
7045;SDS011;3564;53.326;10.356;2023-12-20T05:21:02;7.83;;;3.30;;
7045;SDS011;3564;53.326;10.356;2023-12-20T05:23:28;13.07;;;3.53;;
7045;SDS011;3564;53.326;10.356;2023-12-20T05:25:53;11.63;;;3.33;;
7045;SDS011;3564;53.326;10.356;2023-12-20T05:28:19;11.23;;;3.50;;
7045;SDS011;3564;53.326;10.356;2023-12-20T05:30:44;5.77;;;3.00;;
7045;SDS011;3564;53.326;10.356;2023-12-20T05:33:10;9.93;;;3.07;;
7045;SDS011;3564;53.326;10.356;2023-12-20T05:35:36;11.50;;;3.70;;
7045;SDS011;3564;53.326;10.356;2023-12-20T05:38:01;12.97;;;3.40;;
7045;SDS011;3564;53.326;10.356;2023-12-20T05:40:27;11.83;;;3.00;;
7045;SDS011;3564;53.326;10.356;2023-12-20T05:42:53;9.43;;;2.67;;
7045;SDS011;3564;53.326;10.356;2023-12-20T05:45:19;9.23;;;2.80;;
7045;SDS011;3564;53.326;10.356;2023-12-20T05:47:45;8.00;;;3.23;;
7045;SDS011;3564;53.326;10.356;2023-12-20T05:50:10;9.83;;;3.13;;
7045;SDS011;3564;53.326;10.356;2023-12-20T05:52:36;7.57;;;2.60;;
7045;SDS011;3564;53.326;10.356;2023-12-20T05:55:04;12.37;;;3.30;;
7045;SDS011;3564;53.326;10.356;2023-12-20T05:57:33;9.07;;;2.90;;
7045;SDS011;3564;53.326;10.356;2023-12-20T05:59:58;8.83;;;3.90;;
7045;SDS011;3564;53.326;10.356;2023-12-20T06:02:24;9.90;;;2.83;;
7045;SDS011;3564;53.326;10.356;2023-12-20T06:04:50;10.17;;;3.53;;
7045;SDS011;3564;53.326;10.356;2023-12-20T06:07:18;6.10;;;2.50;;
7045;SDS011;3564;53.326;10.356;2023-12-20T06:09:46;5.53;;;2.97;;
7045;SDS011;3564;53.326;10.356;2023-12-20T06:12:12;10.90;;;2.77;;
7045;SDS011;3564;53.326;10.356;2023-12-20T06:14:37;11.70;;;3.43;;
7045;SDS011;3564;53.326;10.356;2023-12-20T06:17:06;13.40;;;3.50;;
7045;SDS011;3564;53.326;10.356;2023-12-20T06:19:32;5.77;;;2.67;;
7045;SDS011;3564;53.326;10.356;2023-12-20T06:22:00;8.83;;;3.17;;
7045;SDS011;3564;53.326;10.356;2023-12-20T06:24:26;14.40;;;3.80;;
7045;SDS011;3564;53.326;10.356;2023-12-20T06:26:53;9.97;;;4.00;;
7045;SDS011;3564;53.326;10.356;2023-12-20T06:29:20;8.40;;;3.77;;
7045;SDS011;3564;53.326;10.356;2023-12-20T06:31:45;9.20;;;3.60;;
7045;SDS011;3564;53.326;10.356;2023-12-20T06:34:11;10.27;;;4.20;;
7045;SDS011;3564;53.326;10.356;2023-12-20T06:36:37;16.20;;;4.47;;
7045;SDS011;3564;53.326;10.356;2023-12-20T06:39:02;10.57;;;3.40;;
7045;SDS011;3564;53.326;10.356;2023-12-20T06:41:29;10.47;;;4.57;;
7045;SDS011;3564;53.326;10.356;2023-12-20T06:43:58;11.43;;;3.50;;
7045;SDS011;3564;53.326;10.356;2023-12-20T06:46:23;10.27;;;3.63;;
7045;SDS011;3564;53.326;10.356;2023-12-20T06:48:49;9.90;;;4.20;;
7045;SDS011;3564;53.326;10.356;2023-12-20T06:51:15;9.03;;;3.50;;
7045;SDS011;3564;53.326;10.356;2023-12-20T06:53:41;12.23;;;3.70;;
7045;SDS011;3564;53.326;10.356;2023-12-20T06:56:07;7.77;;;3.37;;
7045;SDS011;3564;53.326;10.356;2023-12-20T06:58:34;9.97;;;3.20;;
7045;SDS011;3564;53.326;10.356;2023-12-20T07:01:10;13.90;;;4.20;;
7045;SDS011;3564;53.326;10.356;2023-12-20T07:03:37;8.13;;;3.87;;
7045;SDS011;3564;53.326;10.356;2023-12-20T07:06:05;12.10;;;4.27;;
7045;SDS011;3564;53.326;10.356;2023-12-20T07:08:31;10.17;;;3.60;;
7045;SDS011;3564;53.326;10.356;2023-12-20T07:10:57;8.07;;;3.07;;
7045;SDS011;3564;53.326;10.356;2023-12-20T07:13:22;7.27;;;3.20;;
7045;SDS011;3564;53.326;10.356;2023-12-20T07:15:51;10.27;;;4.10;;
7045;SDS011;3564;53.326;10.356;2023-12-20T07:18:19;10.47;;;3.20;;
7045;SDS011;3564;53.326;10.356;2023-12-20T07:20:45;7.60;;;3.70;;
7045;SDS011;3564;53.326;10.356;2023-12-20T07:23:10;15.13;;;3.90;;
7045;SDS011;3564;53.326;10.356;2023-12-20T07:25:36;14.73;;;3.53;;
7045;SDS011;3564;53.326;10.356;2023-12-20T07:28:02;14.90;;;3.83;;
7045;SDS011;3564;53.326;10.356;2023-12-20T07:30:31;8.87;;;3.10;;
7045;SDS011;3564;53.326;10.356;2023-12-20T07:32:56;9.97;;;3.47;;
7045;SDS011;3564;53.326;10.356;2023-12-20T07:35:23;14.20;;;3.83;;
7045;SDS011;3564;53.326;10.356;2023-12-20T07:37:50;11.93;;;4.00;;
7045;SDS011;3564;53.326;10.356;2023-12-20T07:40:15;11.10;;;3.50;;
7045;SDS011;3564;53.326;10.356;2023-12-20T07:42:42;9.73;;;3.00;;
7045;SDS011;3564;53.326;10.356;2023-12-20T07:45:08;9.27;;;2.87;;
7045;SDS011;3564;53.326;10.356;2023-12-20T07:47:35;10.33;;;4.00;;
7045;SDS011;3564;53.326;10.356;2023-12-20T07:50:01;11.03;;;3.00;;
7045;SDS011;3564;53.326;10.356;2023-12-20T07:52:27;7.83;;;2.93;;
7045;SDS011;3564;53.326;10.356;2023-12-20T07:54:54;11.10;;;3.43;;
7045;SDS011;3564;53.326;10.356;2023-12-20T07:57:19;7.83;;;2.70;;
7045;SDS011;3564;53.326;10.356;2023-12-20T07:59:45;7.37;;;3.13;;
7045;SDS011;3564;53.326;10.356;2023-12-20T08:02:11;8.47;;;3.63;;
7045;SDS011;3564;53.326;10.356;2023-12-20T08:04:39;10.97;;;3.60;;
7045;SDS011;3564;53.326;10.356;2023-12-20T08:07:08;9.37;;;3.20;;
7045;SDS011;3564;53.326;10.356;2023-12-20T08:09:34;10.57;;;4.60;;
7045;SDS011;3564;53.326;10.356;2023-12-20T08:12:04;12.27;;;3.73;;
7045;SDS011;3564;53.326;10.356;2023-12-20T08:14:30;7.93;;;2.90;;
7045;SDS011;3564;53.326;10.356;2023-12-20T08:16:56;14.13;;;3.37;;
7045;SDS011;3564;53.326;10.356;2023-12-20T08:19:22;13.63;;;3.53;;
7045;SDS011;3564;53.326;10.356;2023-12-20T08:21:50;11.30;;;3.67;;
7045;SDS011;3564;53.326;10.356;2023-12-20T08:24:16;11.53;;;3.00;;
7045;SDS011;3564;53.326;10.356;2023-12-20T08:26:45;15.10;;;4.40;;
7045;SDS011;3564;53.326;10.356;2023-12-20T08:29:12;12.73;;;3.80;;
7045;SDS011;3564;53.326;10.356;2023-12-20T08:31:39;17.13;;;4.07;;
7045;SDS011;3564;53.326;10.356;2023-12-20T08:34:04;12.40;;;3.80;;
7045;SDS011;3564;53.326;10.356;2023-12-20T08:36:33;15.07;;;3.50;;
7045;SDS011;3564;53.326;10.356;2023-12-20T08:38:59;14.57;;;3.63;;
7045;SDS011;3564;53.326;10.356;2023-12-20T08:41:25;15.20;;;3.33;;
7045;SDS011;3564;53.326;10.356;2023-12-20T08:43:51;11.80;;;3.03;;
7045;SDS011;3564;53.326;10.356;2023-12-20T08:46:16;9.87;;;3.43;;
7045;SDS011;3564;53.326;10.356;2023-12-20T08:48:42;10.77;;;3.13;;
7045;SDS011;3564;53.326;10.356;2023-12-20T08:51:08;13.50;;;4.20;;
7045;SDS011;3564;53.326;10.356;2023-12-20T08:53:35;11.20;;;3.70;;
7045;SDS011;3564;53.326;10.356;2023-12-20T08:56:00;15.20;;;4.17;;
7045;SDS011;3564;53.326;10.356;2023-12-20T08:58:27;9.10;;;3.20;;
7045;SDS011;3564;53.326;10.356;2023-12-20T09:00:53;12.97;;;4.07;;
7045;SDS011;3564;53.326;10.356;2023-12-20T09:03:18;9.97;;;2.97;;
7045;SDS011;3564;53.326;10.356;2023-12-20T09:05:47;9.73;;;3.57;;
7045;SDS011;3564;53.326;10.356;2023-12-20T09:08:12;11.17;;;3.70;;
7045;SDS011;3564;53.326;10.356;2023-12-20T09:10:38;11.40;;;3.57;;
7045;SDS011;3564;53.326;10.356;2023-12-20T09:13:03;15.33;;;3.50;;
7045;SDS011;3564;53.326;10.356;2023-12-20T09:15:29;15.30;;;3.63;;
7045;SDS011;3564;53.326;10.356;2023-12-20T09:17:59;10.60;;;3.77;;
7045;SDS011;3564;53.326;10.356;2023-12-20T09:20:28;12.23;;;2.93;;
7045;SDS011;3564;53.326;10.356;2023-12-20T09:22:54;7.37;;;2.80;;
7045;SDS011;3564;53.326;10.356;2023-12-20T09:25:25;8.33;;;2.50;;
7045;SDS011;3564;53.326;10.356;2023-12-20T09:27:51;6.57;;;2.43;;
7045;SDS011;3564;53.326;10.356;2023-12-20T09:30:17;5.23;;;2.40;;
7045;SDS011;3564;53.326;10.356;2023-12-20T09:32:43;9.80;;;3.00;;
7045;SDS011;3564;53.326;10.356;2023-12-20T09:35:10;8.37;;;2.80;;
7045;SDS011;3564;53.326;10.356;2023-12-20T09:37:35;12.37;;;3.20;;
7045;SDS011;3564;53.326;10.356;2023-12-20T09:40:01;7.60;;;2.70;;
7045;SDS011;3564;53.326;10.356;2023-12-20T09:42:38;7.20;;;2.80;;
7045;SDS011;3564;53.326;10.356;2023-12-20T09:45:11;12.60;;;3.27;;
7045;SDS011;3564;53.326;10.356;2023-12-20T09:47:41;9.30;;;2.80;;
7045;SDS011;3564;53.326;10.356;2023-12-20T09:50:08;7.73;;;2.90;;
7045;SDS011;3564;53.326;10.356;2023-12-20T09:52:34;8.60;;;2.47;;
7045;SDS011;3564;53.326;10.356;2023-12-20T09:55:01;5.07;;;2.40;;
7045;SDS011;3564;53.326;10.356;2023-12-20T09:57:31;7.43;;;3.07;;
7045;SDS011;3564;53.326;10.356;2023-12-20T09:59:59;5.00;;;2.57;;
7045;SDS011;3564;53.326;10.356;2023-12-20T10:02:25;4.40;;;2.40;;
7045;SDS011;3564;53.326;10.356;2023-12-20T10:04:52;4.87;;;2.20;;
7045;SDS011;3564;53.326;10.356;2023-12-20T10:07:19;6.87;;;2.00;;
7045;SDS011;3564;53.326;10.356;2023-12-20T10:09:46;3.40;;;1.60;;
7045;SDS011;3564;53.326;10.356;2023-12-20T10:12:13;5.90;;;1.87;;
7045;SDS011;3564;53.326;10.356;2023-12-20T10:14:39;4.77;;;1.87;;
7045;SDS011;3564;53.326;10.356;2023-12-20T10:17:04;5.37;;;1.70;;
7045;SDS011;3564;53.326;10.356;2023-12-20T10:19:31;4.70;;;1.73;;
7045;SDS011;3564;53.326;10.356;2023-12-20T10:22:00;2.97;;;1.20;;
7045;SDS011;3564;53.326;10.356;2023-12-20T10:24:32;2.07;;;1.10;;
7045;SDS011;3564;53.326;10.356;2023-12-20T10:27:07;2.80;;;1.20;;
7045;SDS011;3564;53.326;10.356;2023-12-20T10:29:33;3.20;;;1.20;;
7045;SDS011;3564;53.326;10.356;2023-12-20T10:32:10;1.07;;;0.80;;
7045;SDS011;3564;53.326;10.356;2023-12-20T10:34:53;1.43;;;1.03;;
7045;SDS011;3564;53.326;10.356;2023-12-20T10:37:20;1.13;;;0.93;;
7045;SDS011;3564;53.326;10.356;2023-12-20T10:39:55;0.97;;;0.90;;
7045;SDS011;3564;53.326;10.356;2023-12-20T10:42:26;1.50;;;0.90;;
7045;SDS011;3564;53.326;10.356;2023-12-20T10:44:51;3.10;;;1.23;;
7045;SDS011;3564;53.326;10.356;2023-12-20T10:47:19;1.23;;;1.00;;
7045;SDS011;3564;53.326;10.356;2023-12-20T10:49:45;2.80;;;0.90;;
7045;SDS011;3564;53.326;10.356;2023-12-20T10:52:11;3.00;;;1.00;;
7045;SDS011;3564;53.326;10.356;2023-12-20T10:54:38;3.83;;;1.20;;
7045;SDS011;3564;53.326;10.356;2023-12-20T10:57:07;1.52;;;1.00;;
7045;SDS011;3564;53.326;10.356;2023-12-20T10:59:33;1.33;;;1.20;;
7045;SDS011;3564;53.326;10.356;2023-12-20T11:02:04;2.60;;;1.30;;
7045;SDS011;3564;53.326;10.356;2023-12-20T11:07:19;3.43;;;1.50;;
7045;SDS011;3564;53.326;10.356;2023-12-20T11:16:10;1.60;;;0.80;;
7045;SDS011;3564;53.326;10.356;2023-12-20T11:18:36;3.03;;;1.50;;
7045;SDS011;3564;53.326;10.356;2023-12-20T11:21:02;3.13;;;2.03;;
7045;SDS011;3564;53.326;10.356;2023-12-20T11:23:29;7.40;;;3.63;;
7045;SDS011;3564;53.326;10.356;2023-12-20T11:25:58;6.57;;;3.40;;
7045;SDS011;3564;53.326;10.356;2023-12-20T11:28:27;5.77;;;2.10;;
7045;SDS011;3564;53.326;10.356;2023-12-20T11:30:56;2.70;;;1.50;;
7045;SDS011;3564;53.326;10.356;2023-12-20T11:33:31;3.10;;;1.37;;
7045;SDS011;3564;53.326;10.356;2023-12-20T11:36:00;5.43;;;1.70;;
7045;SDS011;3564;53.326;10.356;2023-12-20T11:38:27;2.93;;;1.23;;
7045;SDS011;3564;53.326;10.356;2023-12-20T11:41:00;3.63;;;1.50;;
7045;SDS011;3564;53.326;10.356;2023-12-20T11:43:35;1.87;;;1.30;;
7045;SDS011;3564;53.326;10.356;2023-12-20T11:46:19;4.53;;;1.40;;
7045;SDS011;3564;53.326;10.356;2023-12-20T11:48:45;4.53;;;1.50;;
7045;SDS011;3564;53.326;10.356;2023-12-20T11:51:12;4.83;;;1.40;;
7045;SDS011;3564;53.326;10.356;2023-12-20T11:53:39;4.53;;;1.50;;
7045;SDS011;3564;53.326;10.356;2023-12-20T11:56:06;7.70;;;3.30;;
7045;SDS011;3564;53.326;10.356;2023-12-20T11:58:32;4.07;;;1.80;;
7045;SDS011;3564;53.326;10.356;2023-12-20T12:00:58;5.40;;;1.93;;
7045;SDS011;3564;53.326;10.356;2023-12-20T12:03:24;5.67;;;1.97;;
7045;SDS011;3564;53.326;10.356;2023-12-20T12:05:50;3.17;;;1.60;;
7045;SDS011;3564;53.326;10.356;2023-12-20T12:08:19;6.67;;;2.10;;
7045;SDS011;3564;53.326;10.356;2023-12-20T12:10:45;4.13;;;1.80;;
7045;SDS011;3564;53.326;10.356;2023-12-20T12:13:10;6.53;;;2.00;;
7045;SDS011;3564;53.326;10.356;2023-12-20T12:15:36;5.30;;;2.20;;
7045;SDS011;3564;53.326;10.356;2023-12-20T12:18:03;6.17;;;2.00;;
7045;SDS011;3564;53.326;10.356;2023-12-20T12:20:30;4.70;;;1.63;;
7045;SDS011;3564;53.326;10.356;2023-12-20T12:22:59;8.93;;;2.60;;
7045;SDS011;3564;53.326;10.356;2023-12-20T12:25:25;4.20;;;1.77;;
7045;SDS011;3564;53.326;10.356;2023-12-20T12:28:00;7.77;;;1.83;;
7045;SDS011;3564;53.326;10.356;2023-12-20T12:30:26;3.80;;;1.93;;
7045;SDS011;3564;53.326;10.356;2023-12-20T12:32:55;5.03;;;2.00;;
7045;SDS011;3564;53.326;10.356;2023-12-20T12:35:22;3.27;;;1.90;;
7045;SDS011;3564;53.326;10.356;2023-12-20T12:37:48;7.30;;;1.90;;
7045;SDS011;3564;53.326;10.356;2023-12-20T12:40:15;5.80;;;1.80;;
7045;SDS011;3564;53.326;10.356;2023-12-20T12:42:42;9.33;;;2.13;;
7045;SDS011;3564;53.326;10.356;2023-12-20T12:45:09;6.53;;;2.10;;
7045;SDS011;3564;53.326;10.356;2023-12-20T12:47:39;3.07;;;2.00;;
7045;SDS011;3564;53.326;10.356;2023-12-20T12:50:05;5.30;;;1.90;;
7045;SDS011;3564;53.326;10.356;2023-12-20T12:52:34;8.13;;;1.90;;
7045;SDS011;3564;53.326;10.356;2023-12-20T12:55:03;6.00;;;2.00;;
7045;SDS011;3564;53.326;10.356;2023-12-20T12:57:32;8.57;;;2.07;;
7045;SDS011;3564;53.326;10.356;2023-12-20T12:59:58;5.70;;;2.03;;
7045;SDS011;3564;53.326;10.356;2023-12-20T13:02:24;5.53;;;2.00;;
7045;SDS011;3564;53.326;10.356;2023-12-20T13:04:49;3.63;;;1.80;;
7045;SDS011;3564;53.326;10.356;2023-12-20T13:07:15;6.30;;;1.83;;
7045;SDS011;3564;53.326;10.356;2023-12-20T13:09:41;7.60;;;2.73;;
7045;SDS011;3564;53.326;10.356;2023-12-20T13:12:07;5.63;;;1.73;;
7045;SDS011;3564;53.326;10.356;2023-12-20T13:14:33;8.23;;;2.27;;
7045;SDS011;3564;53.326;10.356;2023-12-20T13:17:00;5.30;;;1.70;;
7045;SDS011;3564;53.326;10.356;2023-12-20T13:19:26;5.13;;;1.73;;
7045;SDS011;3564;53.326;10.356;2023-12-20T13:21:52;6.90;;;1.80;;
7045;SDS011;3564;53.326;10.356;2023-12-20T13:24:18;5.30;;;1.90;;
7045;SDS011;3564;53.326;10.356;2023-12-20T13:26:43;9.70;;;1.90;;
7045;SDS011;3564;53.326;10.356;2023-12-20T13:29:18;10.13;;;2.53;;
7045;SDS011;3564;53.326;10.356;2023-12-20T13:31:44;7.27;;;2.53;;
7045;SDS011;3564;53.326;10.356;2023-12-20T13:34:12;7.63;;;1.63;;
7045;SDS011;3564;53.326;10.356;2023-12-20T13:36:38;7.33;;;1.93;;
7045;SDS011;3564;53.326;10.356;2023-12-20T13:39:04;6.33;;;2.20;;
7045;SDS011;3564;53.326;10.356;2023-12-20T13:41:30;5.93;;;2.63;;
7045;SDS011;3564;53.326;10.356;2023-12-20T13:43:56;5.90;;;2.23;;
7045;SDS011;3564;53.326;10.356;2023-12-20T13:46:25;5.33;;;2.10;;
7045;SDS011;3564;53.326;10.356;2023-12-20T13:48:50;8.20;;;1.83;;
7045;SDS011;3564;53.326;10.356;2023-12-20T13:51:16;5.90;;;1.97;;
7045;SDS011;3564;53.326;10.356;2023-12-20T13:53:41;8.93;;;2.20;;
7045;SDS011;3564;53.326;10.356;2023-12-20T13:56:07;15.03;;;2.57;;
7045;SDS011;3564;53.326;10.356;2023-12-20T13:58:33;9.40;;;2.47;;
7045;SDS011;3564;53.326;10.356;2023-12-20T14:00:58;11.43;;;2.33;;
7045;SDS011;3564;53.326;10.356;2023-12-20T14:03:24;8.93;;;2.50;;
7045;SDS011;3564;53.326;10.356;2023-12-20T14:05:52;7.93;;;3.20;;
7045;SDS011;3564;53.326;10.356;2023-12-20T14:08:18;10.00;;;2.60;;
7045;SDS011;3564;53.326;10.356;2023-12-20T14:10:44;8.83;;;3.03;;
7045;SDS011;3564;53.326;10.356;2023-12-20T14:13:09;12.83;;;3.03;;
7045;SDS011;3564;53.326;10.356;2023-12-20T14:15:35;14.90;;;3.70;;
7045;SDS011;3564;53.326;10.356;2023-12-20T14:18:05;10.57;;;3.20;;
7045;SDS011;3564;53.326;10.356;2023-12-20T14:20:32;9.10;;;2.90;;
7045;SDS011;3564;53.326;10.356;2023-12-20T14:22:59;15.47;;;3.57;;
7045;SDS011;3564;53.326;10.356;2023-12-20T14:25:25;12.43;;;3.07;;
7045;SDS011;3564;53.326;10.356;2023-12-20T14:27:51;13.07;;;3.23;;
7045;SDS011;3564;53.326;10.356;2023-12-20T14:30:17;14.30;;;4.70;;
7045;SDS011;3564;53.326;10.356;2023-12-20T14:32:42;12.07;;;3.40;;
7045;SDS011;3564;53.326;10.356;2023-12-20T14:35:08;11.50;;;4.00;;
7045;SDS011;3564;53.326;10.356;2023-12-20T14:37:34;15.07;;;4.43;;
7045;SDS011;3564;53.326;10.356;2023-12-20T14:40:07;15.83;;;5.07;;
7045;SDS011;3564;53.326;10.356;2023-12-20T14:42:40;10.13;;;4.33;;
7045;SDS011;3564;53.326;10.356;2023-12-20T14:45:08;9.33;;;3.07;;
7045;SDS011;3564;53.326;10.356;2023-12-20T14:47:34;11.07;;;3.40;;
7045;SDS011;3564;53.326;10.356;2023-12-20T14:50:02;11.53;;;3.60;;
7045;SDS011;3564;53.326;10.356;2023-12-20T14:52:29;15.93;;;3.47;;
7045;SDS011;3564;53.326;10.356;2023-12-20T14:54:54;11.97;;;4.10;;
7045;SDS011;3564;53.326;10.356;2023-12-20T14:57:20;10.87;;;3.57;;
7045;SDS011;3564;53.326;10.356;2023-12-20T14:59:49;13.80;;;3.83;;
7045;SDS011;3564;53.326;10.356;2023-12-20T15:02:14;10.77;;;3.00;;
7045;SDS011;3564;53.326;10.356;2023-12-20T15:04:40;14.63;;;4.40;;